sensor_id;sensor_type;location;lat;lon;timestamp;pressure;altitude;pressure_sealevel;temperature;humidity
34073;BME280;20346;52.702;16.886;2023-01-15T00:00:39;99510.74;;;7.13;78.41
34073;BME280;20346;52.702;16.886;2023-01-15T00:03:04;99510.06;;;7.13;78.37
34073;BME280;20346;52.702;16.886;2023-01-15T00:05:30;99505.94;;;7.13;78.33
34073;BME280;20346;52.702;16.886;2023-01-15T00:07:55;99496.52;;;7.14;78.34
34073;BME280;20346;52.702;16.886;2023-01-15T00:10:20;99495.31;;;7.14;78.24
34073;BME280;20346;52.702;16.886;2023-01-15T00:12:46;99488.11;;;7.14;78.12
34073;BME280;20346;52.702;16.886;2023-01-15T00:15:11;99474.92;;;7.14;78.31
34073;BME280;20346;52.702;16.886;2023-01-15T00:17:36;99466.85;;;7.14;78.32
34073;BME280;20346;52.702;16.886;2023-01-15T00:20:01;99467.71;;;7.14;78.33
34073;BME280;20346;52.702;16.886;2023-01-15T00:22:27;99458.62;;;7.14;78.27
34073;BME280;20346;52.702;16.886;2023-01-15T00:24:53;99457.91;;;7.15;78.27
34073;BME280;20346;52.702;16.886;2023-01-15T00:27:37;99453.27;;;7.16;78.24
34073;BME280;20346;52.702;16.886;2023-01-15T00:30:03;99447.27;;;7.16;78.18
34073;BME280;20346;52.702;16.886;2023-01-15T00:32:28;99436.64;;;7.17;78.20
34073;BME280;20346;52.702;16.886;2023-01-15T00:34:54;99425.15;;;7.17;78.19
34073;BME280;20346;52.702;16.886;2023-01-15T00:37:19;99415.01;;;7.18;78.14
34073;BME280;20346;52.702;16.886;2023-01-15T00:39:45;99405.90;;;7.19;78.10
34073;BME280;20346;52.702;16.886;2023-01-15T00:42:12;99399.17;;;7.21;78.22
34073;BME280;20346;52.702;16.886;2023-01-15T00:44:38;99400.18;;;7.22;78.14
34073;BME280;20346;52.702;16.886;2023-01-15T00:47:03;99403.75;;;7.24;78.17
34073;BME280;20346;52.702;16.886;2023-01-15T00:49:30;99399.60;;;7.26;78.12
34073;BME280;20346;52.702;16.886;2023-01-15T00:51:55;99394.70;;;7.28;78.09
34073;BME280;20346;52.702;16.886;2023-01-15T00:54:20;99395.17;;;7.30;78.12
34073;BME280;20346;52.702;16.886;2023-01-15T00:56:46;99400.09;;;7.32;78.13
34073;BME280;20346;52.702;16.886;2023-01-15T00:59:11;99401.43;;;7.35;78.15
34073;BME280;20346;52.702;16.886;2023-01-15T01:01:37;99395.53;;;7.38;78.12
34073;BME280;20346;52.702;16.886;2023-01-15T01:04:03;99396.52;;;7.39;78.09
34073;BME280;20346;52.702;16.886;2023-01-15T01:06:28;99401.77;;;7.43;77.97
34073;BME280;20346;52.702;16.886;2023-01-15T01:08:54;99405.49;;;7.44;78.16
34073;BME280;20346;52.702;16.886;2023-01-15T01:11:20;99393.11;;;7.46;78.18
34073;BME280;20346;52.702;16.886;2023-01-15T01:13:45;99393.23;;;7.48;78.19
34073;BME280;20346;52.702;16.886;2023-01-15T01:16:21;99378.64;;;7.49;78.07
34073;BME280;20346;52.702;16.886;2023-01-15T01:18:47;99372.80;;;7.50;78.14
34073;BME280;20346;52.702;16.886;2023-01-15T01:21:14;99366.95;;;7.50;78.04
34073;BME280;20346;52.702;16.886;2023-01-15T01:23:40;99364.69;;;7.51;77.94
34073;BME280;20346;52.702;16.886;2023-01-15T01:26:05;99362.62;;;7.52;77.98
34073;BME280;20346;52.702;16.886;2023-01-15T01:28:30;99354.21;;;7.52;78.04
34073;BME280;20346;52.702;16.886;2023-01-15T01:30:55;99348.02;;;7.53;78.04
34073;BME280;20346;52.702;16.886;2023-01-15T01:33:21;99355.38;;;7.54;78.14
34073;BME280;20346;52.702;16.886;2023-01-15T01:35:47;99347.99;;;7.54;78.08
34073;BME280;20346;52.702;16.886;2023-01-15T01:38:12;99346.27;;;7.55;78.05
34073;BME280;20346;52.702;16.886;2023-01-15T01:40:56;99344.02;;;7.55;78.10
34073;BME280;20346;52.702;16.886;2023-01-15T01:43:23;99339.02;;;7.56;78.04
34073;BME280;20346;52.702;16.886;2023-01-15T01:45:49;99326.81;;;7.58;78.00
34073;BME280;20346;52.702;16.886;2023-01-15T01:48:15;99327.11;;;7.59;77.94
34073;BME280;20346;52.702;16.886;2023-01-15T01:50:41;99328.62;;;7.61;77.97
34073;BME280;20346;52.702;16.886;2023-01-15T01:53:15;99324.30;;;7.62;77.96
34073;BME280;20346;52.702;16.886;2023-01-15T01:55:42;99325.13;;;7.64;78.02
34073;BME280;20346;52.702;16.886;2023-01-15T01:58:07;99317.87;;;7.66;77.93
34073;BME280;20346;52.702;16.886;2023-01-15T02:00:35;99317.14;;;7.68;77.97
34073;BME280;20346;52.702;16.886;2023-01-15T02:03:05;99327.38;;;7.69;78.00
34073;BME280;20346;52.702;16.886;2023-01-15T02:05:33;99322.71;;;7.71;77.80
34073;BME280;20346;52.702;16.886;2023-01-15T02:08:05;99308.44;;;7.72;77.92
34073;BME280;20346;52.702;16.886;2023-01-15T02:10:33;99303.76;;;7.74;77.72
34073;BME280;20346;52.702;16.886;2023-01-15T02:14:02;99291.71;;;7.76;77.93
34073;BME280;20346;52.702;16.886;2023-01-15T02:15:56;99272.80;;;7.78;77.91
34073;BME280;20346;52.702;16.886;2023-01-15T02:20:53;99278.84;;;7.81;77.72
34073;BME280;20346;52.702;16.886;2023-01-15T02:23:32;99287.52;;;7.84;77.80
34073;BME280;20346;52.702;16.886;2023-01-15T02:28:43;99291.49;;;7.90;77.81
34073;BME280;20346;52.702;16.886;2023-01-15T02:31:21;99284.55;;;7.93;77.90
34073;BME280;20346;52.702;16.886;2023-01-15T02:33:56;99276.77;;;7.95;77.88
34073;BME280;20346;52.702;16.886;2023-01-15T02:36:24;99269.00;;;7.97;77.83
34073;BME280;20346;52.702;16.886;2023-01-15T02:38:53;99264.65;;;7.99;77.88
34073;BME280;20346;52.702;16.886;2023-01-15T02:41:32;99262.38;;;8.01;77.87
34073;BME280;20346;52.702;16.886;2023-01-15T02:44:01;99253.93;;;8.02;77.85
34073;BME280;20346;52.702;16.886;2023-01-15T02:46:28;99246.85;;;8.04;77.80
34073;BME280;20346;52.702;16.886;2023-01-15T02:48:55;99251.09;;;8.06;77.88
34073;BME280;20346;52.702;16.886;2023-01-15T02:51:22;99252.07;;;8.08;77.93
34073;BME280;20346;52.702;16.886;2023-01-15T02:53:50;99248.93;;;8.09;77.85
34073;BME280;20346;52.702;16.886;2023-01-15T02:56:18;99254.89;;;8.11;77.88
34073;BME280;20346;52.702;16.886;2023-01-15T02:58:47;99251.09;;;8.12;77.90
34073;BME280;20346;52.702;16.886;2023-01-15T03:01:18;99247.64;;;8.12;77.83
34073;BME280;20346;52.702;16.886;2023-01-15T03:08:54;99249.60;;;8.16;77.95
34073;BME280;20346;52.702;16.886;2023-01-15T03:11:22;99249.58;;;8.16;78.01
34073;BME280;20346;52.702;16.886;2023-01-15T03:13:52;99247.85;;;8.17;78.03
34073;BME280;20346;52.702;16.886;2023-01-15T03:21:30;99231.84;;;8.19;78.14
34073;BME280;20346;52.702;16.886;2023-01-15T03:24:03;99230.95;;;8.20;78.14
34073;BME280;20346;52.702;16.886;2023-01-15T03:26:33;99220.83;;;8.20;78.20
34073;BME280;20346;52.702;16.886;2023-01-15T03:29:02;99212.44;;;8.19;78.28
34073;BME280;20346;52.702;16.886;2023-01-15T03:31:30;99217.30;;;8.17;78.25
34073;BME280;20346;52.702;16.886;2023-01-15T03:33:58;99209.46;;;8.15;78.17
34073;BME280;20346;52.702;16.886;2023-01-15T03:36:23;99207.65;;;8.12;78.32
34073;BME280;20346;52.702;16.886;2023-01-15T03:38:49;99215.43;;;8.10;78.28
34073;BME280;20346;52.702;16.886;2023-01-15T03:43:45;99209.20;;;8.05;78.30
34073;BME280;20346;52.702;16.886;2023-01-15T03:48:55;99209.79;;;8.03;78.36
34073;BME280;20346;52.702;16.886;2023-01-15T03:51:32;99202.76;;;8.04;78.32
34073;BME280;20346;52.702;16.886;2023-01-15T03:54:04;99186.98;;;8.03;78.30
34073;BME280;20346;52.702;16.886;2023-01-15T04:02:07;99174.11;;;8.03;78.23
34073;BME280;20346;52.702;16.886;2023-01-15T04:04:33;99172.55;;;8.03;78.31
34073;BME280;20346;52.702;16.886;2023-01-15T04:06:59;99162.43;;;8.03;78.17
34073;BME280;20346;52.702;16.886;2023-01-15T04:09:25;99154.70;;;8.04;78.24
34073;BME280;20346;52.702;16.886;2023-01-15T04:11:59;99150.40;;;8.04;78.12
34073;BME280;20346;52.702;16.886;2023-01-15T04:14:28;99155.16;;;8.05;78.17
34073;BME280;20346;52.702;16.886;2023-01-15T04:16:57;99157.36;;;8.07;78.11
34073;BME280;20346;52.702;16.886;2023-01-15T04:19:30;99150.29;;;8.08;78.02
34073;BME280;20346;52.702;16.886;2023-01-15T04:21:57;99147.16;;;8.09;78.09
34073;BME280;20346;52.702;16.886;2023-01-15T04:24:28;99150.73;;;8.10;78.17
34073;BME280;20346;52.702;16.886;2023-01-15T04:26:53;99151.73;;;8.11;78.13
34073;BME280;20346;52.702;16.886;2023-01-15T04:29:20;99143.27;;;8.13;78.06
34073;BME280;20346;52.702;16.886;2023-01-15T04:31:48;99137.07;;;8.14;78.06
34073;BME280;20346;52.702;16.886;2023-01-15T04:34:22;99130.33;;;8.15;78.11
34073;BME280;20346;52.702;16.886;2023-01-15T04:36:51;99130.81;;;8.16;78.10
34073;BME280;20346;52.702;16.886;2023-01-15T04:39:19;99125.83;;;8.17;78.09
34073;BME280;20346;52.702;16.886;2023-01-15T04:41:48;99128.23;;;8.17;78.18
34073;BME280;20346;52.702;16.886;2023-01-15T04:44:32;99128.60;;;8.15;78.24
34073;BME280;20346;52.702;16.886;2023-01-15T04:46:58;99134.12;;;8.15;78.26
34073;BME280;20346;52.702;16.886;2023-01-15T04:49:24;99126.09;;;8.13;78.27
34073;BME280;20346;52.702;16.886;2023-01-15T04:51:50;99123.54;;;8.12;78.41
34073;BME280;20346;52.702;16.886;2023-01-15T04:54:16;99121.52;;;8.12;78.45
34073;BME280;20346;52.702;16.886;2023-01-15T04:56:46;99117.42;;;8.11;78.46
34073;BME280;20346;52.702;16.886;2023-01-15T04:59:21;99116.95;;;8.09;78.43
34073;BME280;20346;52.702;16.886;2023-01-15T05:01:47;99110.13;;;8.08;78.49
34073;BME280;20346;52.702;16.886;2023-01-15T05:04:16;99094.38;;;8.07;78.64
34073;BME280;20346;52.702;16.886;2023-01-15T05:06:41;99104.38;;;8.05;78.61
34073;BME280;20346;52.702;16.886;2023-01-15T05:09:09;99108.87;;;8.04;78.69
34073;BME280;20346;52.702;16.886;2023-01-15T05:11:59;99108.27;;;8.01;78.72
34073;BME280;20346;52.702;16.886;2023-01-15T05:14:24;99108.34;;;7.99;78.84
34073;BME280;20346;52.702;16.886;2023-01-15T05:19:58;99109.73;;;7.92;78.90
34073;BME280;20346;52.702;16.886;2023-01-15T05:22:34;99112.57;;;7.89;78.92
34073;BME280;20346;52.702;16.886;2023-01-15T05:25:01;99111.98;;;7.86;79.00
34073;BME280;20346;52.702;16.886;2023-01-15T05:27:27;99115.39;;;7.81;79.07
34073;BME280;20346;52.702;16.886;2023-01-15T05:29:52;99113.11;;;7.77;79.18
34073;BME280;20346;52.702;16.886;2023-01-15T05:32:17;99114.95;;;7.73;79.21
34073;BME280;20346;52.702;16.886;2023-01-15T05:34:43;99111.48;;;7.68;79.19
34073;BME280;20346;52.702;16.886;2023-01-15T05:37:08;99111.05;;;7.65;79.28
34073;BME280;20346;52.702;16.886;2023-01-15T05:39:33;99111.63;;;7.63;79.40
34073;BME280;20346;52.702;16.886;2023-01-15T05:41:59;99112.02;;;7.61;79.60
34073;BME280;20346;52.702;16.886;2023-01-15T05:44:25;99113.25;;;7.60;79.53
34073;BME280;20346;52.702;16.886;2023-01-15T05:46:51;99112.75;;;7.59;79.54
34073;BME280;20346;52.702;16.886;2023-01-15T05:49:20;99110.53;;;7.59;79.63
34073;BME280;20346;52.702;16.886;2023-01-15T05:51:54;99109.70;;;7.58;79.77
34073;BME280;20346;52.702;16.886;2023-01-15T05:54:20;99114.90;;;7.56;79.67
34073;BME280;20346;52.702;16.886;2023-01-15T05:56:46;99115.42;;;7.56;79.73
34073;BME280;20346;52.702;16.886;2023-01-15T05:59:14;99103.98;;;7.54;79.82
34073;BME280;20346;52.702;16.886;2023-01-15T06:01:40;99100.06;;;7.53;79.87
34073;BME280;20346;52.702;16.886;2023-01-15T06:04:06;99097.98;;;7.54;79.99
34073;BME280;20346;52.702;16.886;2023-01-15T06:06:32;99100.87;;;7.55;79.90
34073;BME280;20346;52.702;16.886;2023-01-15T06:08:57;99093.63;;;7.56;79.91
34073;BME280;20346;52.702;16.886;2023-01-15T06:11:23;99090.17;;;7.58;80.03
34073;BME280;20346;52.702;16.886;2023-01-15T06:13:48;99088.95;;;7.58;79.98
34073;BME280;20346;52.702;16.886;2023-01-15T06:16:13;99087.08;;;7.58;79.97
34073;BME280;20346;52.702;16.886;2023-01-15T06:18:39;99086.04;;;7.58;79.98
34073;BME280;20346;52.702;16.886;2023-01-15T06:21:05;99081.79;;;7.57;80.14
34073;BME280;20346;52.702;16.886;2023-01-15T06:23:31;99086.75;;;7.57;80.12
34073;BME280;20346;52.702;16.886;2023-01-15T06:26:00;99085.18;;;7.58;80.10
34073;BME280;20346;52.702;16.886;2023-01-15T06:28:26;99090.50;;;7.58;80.09
34073;BME280;20346;52.702;16.886;2023-01-15T06:30:51;99084.83;;;7.58;80.16
34073;BME280;20346;52.702;16.886;2023-01-15T06:33:16;99084.29;;;7.59;80.10
34073;BME280;20346;52.702;16.886;2023-01-15T06:35:42;99087.55;;;7.59;80.25
34073;BME280;20346;52.702;16.886;2023-01-15T06:38:07;99089.10;;;7.59;80.17
34073;BME280;20346;52.702;16.886;2023-01-15T06:40:32;99081.05;;;7.58;80.28
34073;BME280;20346;52.702;16.886;2023-01-15T06:42:58;99078.81;;;7.59;80.40
34073;BME280;20346;52.702;16.886;2023-01-15T06:45:42;99082.05;;;7.60;80.37
34073;BME280;20346;52.702;16.886;2023-01-15T06:48:25;99076.91;;;7.59;80.40
34073;BME280;20346;52.702;16.886;2023-01-15T06:50:51;99081.87;;;7.60;80.39
34073;BME280;20346;52.702;16.886;2023-01-15T06:53:17;99087.99;;;7.62;80.52
34073;BME280;20346;52.702;16.886;2023-01-15T06:55:43;99081.09;;;7.63;80.58
34073;BME280;20346;52.702;16.886;2023-01-15T06:58:08;99083.85;;;7.63;80.73
34073;BME280;20346;52.702;16.886;2023-01-15T07:00:34;99082.64;;;7.63;80.63
34073;BME280;20346;52.702;16.886;2023-01-15T07:02:59;99082.13;;;7.63;80.61
34073;BME280;20346;52.702;16.886;2023-01-15T07:05:25;99082.64;;;7.63;80.71
34073;BME280;20346;52.702;16.886;2023-01-15T07:07:50;99076.58;;;7.65;80.81
34073;BME280;20346;52.702;16.886;2023-01-15T07:10:15;99083.42;;;7.66;80.77
34073;BME280;20346;52.702;16.886;2023-01-15T07:12:41;99087.20;;;7.66;80.77
34073;BME280;20346;52.702;16.886;2023-01-15T07:15:06;99084.27;;;7.66;80.97
34073;BME280;20346;52.702;16.886;2023-01-15T07:17:32;99083.75;;;7.66;81.00
34073;BME280;20346;52.702;16.886;2023-01-15T07:19:57;99081.67;;;7.67;80.99
34073;BME280;20346;52.702;16.886;2023-01-15T07:22:23;99078.06;;;7.68;81.03
34073;BME280;20346;52.702;16.886;2023-01-15T07:24:48;99080.08;;;7.69;81.03
34073;BME280;20346;52.702;16.886;2023-01-15T07:27:13;99075.27;;;7.69;81.10
34073;BME280;20346;52.702;16.886;2023-01-15T07:29:39;99080.19;;;7.71;81.11
34073;BME280;20346;52.702;16.886;2023-01-15T07:32:04;99074.00;;;7.72;81.20
34073;BME280;20346;52.702;16.886;2023-01-15T07:34:30;99077.59;;;7.72;81.16
34073;BME280;20346;52.702;16.886;2023-01-15T07:36:55;99079.09;;;7.73;81.24
34073;BME280;20346;52.702;16.886;2023-01-15T07:39:20;99078.36;;;7.75;81.24
34073;BME280;20346;52.702;16.886;2023-01-15T07:41:46;99081.38;;;7.77;81.34
34073;BME280;20346;52.702;16.886;2023-01-15T07:44:29;99082.01;;;7.79;81.39
34073;BME280;20346;52.702;16.886;2023-01-15T07:47:14;99078.83;;;7.81;81.32
34073;BME280;20346;52.702;16.886;2023-01-15T07:49:59;99078.44;;;7.83;81.53
34073;BME280;20346;52.702;16.886;2023-01-15T07:52:25;99073.80;;;7.83;81.45
34073;BME280;20346;52.702;16.886;2023-01-15T07:54:51;99079.27;;;7.84;81.52
34073;BME280;20346;52.702;16.886;2023-01-15T07:57:18;99081.45;;;7.85;81.59
34073;BME280;20346;52.702;16.886;2023-01-15T07:59:44;99078.00;;;7.86;81.50
34073;BME280;20346;52.702;16.886;2023-01-15T08:02:10;99077.11;;;7.87;81.72
34073;BME280;20346;52.702;16.886;2023-01-15T08:04:36;99077.07;;;7.88;81.78
34073;BME280;20346;52.702;16.886;2023-01-15T08:07:02;99071.86;;;7.90;81.79
34073;BME280;20346;52.702;16.886;2023-01-15T08:09:27;99066.80;;;7.93;81.78
34073;BME280;20346;52.702;16.886;2023-01-15T08:11:54;99063.32;;;7.95;81.90
34073;BME280;20346;52.702;16.886;2023-01-15T08:14:38;99062.07;;;7.96;81.81
34073;BME280;20346;52.702;16.886;2023-01-15T08:17:22;99065.77;;;7.99;82.00
34073;BME280;20346;52.702;16.886;2023-01-15T08:19:47;99067.80;;;8.00;82.10
34073;BME280;20346;52.702;16.886;2023-01-15T08:22:13;99067.09;;;8.01;82.00
34073;BME280;20346;52.702;16.886;2023-01-15T08:24:38;99063.47;;;8.02;82.01
34073;BME280;20346;52.702;16.886;2023-01-15T08:27:04;99063.82;;;8.01;82.06
34073;BME280;20346;52.702;16.886;2023-01-15T08:29:29;99065.16;;;8.02;82.13
34073;BME280;20346;52.702;16.886;2023-01-15T08:31:55;99066.48;;;8.04;82.05
34073;BME280;20346;52.702;16.886;2023-01-15T08:34:20;99066.28;;;8.05;82.02
34073;BME280;20346;52.702;16.886;2023-01-15T08:36:45;99067.80;;;8.06;82.23
34073;BME280;20346;52.702;16.886;2023-01-15T08:39:11;99069.66;;;8.07;82.20
34073;BME280;20346;52.702;16.886;2023-01-15T08:41:36;99074.41;;;8.08;82.26
34073;BME280;20346;52.702;16.886;2023-01-15T08:44:02;99074.89;;;8.09;82.20
34073;BME280;20346;52.702;16.886;2023-01-15T08:46:27;99081.38;;;8.11;82.33
34073;BME280;20346;52.702;16.886;2023-01-15T08:48:53;99078.96;;;8.11;82.32
34073;BME280;20346;52.702;16.886;2023-01-15T08:51:18;99079.29;;;8.11;82.35
34073;BME280;20346;52.702;16.886;2023-01-15T08:53:44;99086.84;;;8.12;82.46
34073;BME280;20346;52.702;16.886;2023-01-15T08:56:16;99095.73;;;8.13;82.44
34073;BME280;20346;52.702;16.886;2023-01-15T08:58:41;99131.07;;;8.13;82.51
34073;BME280;20346;52.702;16.886;2023-01-15T09:01:08;99147.52;;;8.14;82.59
34073;BME280;20346;52.702;16.886;2023-01-15T09:03:34;99153.40;;;8.07;81.95
34073;BME280;20346;52.702;16.886;2023-01-15T09:06:00;99151.16;;;7.89;81.64
34073;BME280;20346;52.702;16.886;2023-01-15T09:08:26;99175.02;;;7.72;81.81
34073;BME280;20346;52.702;16.886;2023-01-15T09:10:56;99180.69;;;7.58;81.68
34073;BME280;20346;52.702;16.886;2023-01-15T09:13:22;99185.24;;;7.42;81.73
34073;BME280;20346;52.702;16.886;2023-01-15T09:15:47;99198.27;;;7.29;81.78
34073;BME280;20346;52.702;16.886;2023-01-15T09:18:13;99206.59;;;7.19;81.89
34073;BME280;20346;52.702;16.886;2023-01-15T09:20:43;99210.77;;;7.10;81.87
34073;BME280;20346;52.702;16.886;2023-01-15T09:23:08;99213.92;;;6.99;81.91
34073;BME280;20346;52.702;16.886;2023-01-15T09:25:33;99214.22;;;6.94;81.96
34073;BME280;20346;52.702;16.886;2023-01-15T09:27:59;99213.71;;;6.87;81.91
34073;BME280;20346;52.702;16.886;2023-01-15T09:30:24;99221.11;;;6.78;81.83
34073;BME280;20346;52.702;16.886;2023-01-15T09:32:49;99225.09;;;6.70;81.83
34073;BME280;20346;52.702;16.886;2023-01-15T09:35:15;99232.26;;;6.63;81.86
34073;BME280;20346;52.702;16.886;2023-01-15T09:37:40;99237.38;;;6.56;81.86
34073;BME280;20346;52.702;16.886;2023-01-15T09:40:06;99240.35;;;6.53;81.99
34073;BME280;20346;52.702;16.886;2023-01-15T09:42:36;99239.37;;;6.51;82.03
34073;BME280;20346;52.702;16.886;2023-01-15T09:45:16;99243.23;;;6.47;82.01
34073;BME280;20346;52.702;16.886;2023-01-15T09:57:40;99260.05;;;6.28;81.98
34073;BME280;20346;52.702;16.886;2023-01-15T10:00:06;99262.63;;;6.27;82.11
34073;BME280;20346;52.702;16.886;2023-01-15T10:02:45;99267.77;;;6.27;82.15
34073;BME280;20346;52.702;16.886;2023-01-15T10:05:17;99267.06;;;6.28;82.24
34073;BME280;20346;52.702;16.886;2023-01-15T10:10:16;99258.15;;;6.29;82.21
34073;BME280;20346;52.702;16.886;2023-01-15T10:12:44;99252.14;;;6.30;82.20
34073;BME280;20346;52.702;16.886;2023-01-15T10:17:56;99261.26;;;6.36;82.27
34073;BME280;20346;52.702;16.886;2023-01-15T10:20:41;99261.08;;;6.36;
34073;BME280;20346;52.702;16.886;2023-01-15T10:25:56;99280.11;;;6.35;82.18
34073;BME280;20346;52.702;16.886;2023-01-15T10:28:26;99281.33;;;6.34;82.25
34073;BME280;20346;52.702;16.886;2023-01-15T10:30:53;99272.23;;;6.34;82.34
34073;BME280;20346;52.702;16.886;2023-01-15T10:33:33;99265.04;;;6.35;82.29
34073;BME280;20346;52.702;16.886;2023-01-15T10:38:37;99256.38;;;6.40;82.42
34073;BME280;20346;52.702;16.886;2023-01-15T10:46:03;99254.66;;;6.48;82.50
34073;BME280;20346;52.702;16.886;2023-01-15T10:48:38;99260.27;;;6.51;82.48
34073;BME280;20346;52.702;16.886;2023-01-15T10:51:12;99281.64;;;6.52;82.49
34073;BME280;20346;52.702;16.886;2023-01-15T10:53:58;99290.03;;;6.52;82.43
34073;BME280;20346;52.702;16.886;2023-01-15T10:58:55;99289.78;;;6.47;82.29
34073;BME280;20346;52.702;16.886;2023-01-15T11:01:22;99289.83;;;6.45;82.33
34073;BME280;20346;52.702;16.886;2023-01-15T11:03:50;99289.84;;;6.45;82.39
34073;BME280;20346;52.702;16.886;2023-01-15T11:06:17;99283.68;;;6.44;82.36
34073;BME280;20346;52.702;16.886;2023-01-15T11:08:48;99279.55;;;6.45;82.38
34073;BME280;20346;52.702;16.886;2023-01-15T11:11:19;99284.85;;;6.45;82.47
34073;BME280;20346;52.702;16.886;2023-01-15T11:13:55;99279.38;;;6.45;82.43
34073;BME280;20346;52.702;16.886;2023-01-15T11:16:40;99283.45;;;6.48;82.51
34073;BME280;20346;52.702;16.886;2023-01-15T11:19:33;99272.61;;;6.50;82.53
34073;BME280;20346;52.702;16.886;2023-01-15T11:22:12;99270.68;;;6.52;82.56
34073;BME280;20346;52.702;16.886;2023-01-15T11:24:46;99272.86;;;6.54;82.55
34073;BME280;20346;52.702;16.886;2023-01-15T11:27:21;99277.27;;;6.55;82.57
34073;BME280;20346;52.702;16.886;2023-01-15T11:29:52;99276.19;;;6.59;82.57
34073;BME280;20346;52.702;16.886;2023-01-15T11:32:28;99273.45;;;6.59;82.55
34073;BME280;20346;52.702;16.886;2023-01-15T11:34:55;99270.20;;;6.59;82.51
34073;BME280;20346;52.702;16.886;2023-01-15T11:37:21;99260.91;;;6.61;82.58
34073;BME280;20346;52.702;16.886;2023-01-15T11:39:54;99272.53;;;6.61;82.57
34073;BME280;20346;52.702;16.886;2023-01-15T11:42:19;99285.54;;;6.61;82.54
34073;BME280;20346;52.702;16.886;2023-01-15T11:45:10;99288.88;;;6.58;82.48
34073;BME280;20346;52.702;16.886;2023-01-15T11:47:55;99288.08;;;6.55;82.39
34073;BME280;20346;52.702;16.886;2023-01-15T11:50:39;99287.46;;;6.51;82.37
34073;BME280;20346;52.702;16.886;2023-01-15T11:53:19;99291.64;;;6.49;82.41
34073;BME280;20346;52.702;16.886;2023-01-15T11:58:20;99285.44;;;6.42;82.35
34073;BME280;20346;52.702;16.886;2023-01-15T12:00:48;99279.88;;;6.38;82.33
34073;BME280;20346;52.702;16.886;2023-01-15T12:03:16;99276.15;;;6.36;82.37
34073;BME280;20346;52.702;16.886;2023-01-15T12:05:59;99277.38;;;6.34;82.46
34073;BME280;20346;52.702;16.886;2023-01-15T12:11:03;99294.52;;;6.33;82.46
34073;BME280;20346;52.702;16.886;2023-01-15T12:32:00;99305.59;;;6.20;82.49
34073;BME280;20346;52.702;16.886;2023-01-15T12:42:51;99314.48;;;6.11;82.45
34073;BME280;20346;52.702;16.886;2023-01-15T12:45:37;99321.38;;;6.08;82.47
34073;BME280;20346;52.702;16.886;2023-01-15T12:48:13;99323.80;;;6.07;82.47
34073;BME280;20346;52.702;16.886;2023-01-15T13:00:49;99321.23;;;5.97;82.42
34073;BME280;20346;52.702;16.886;2023-01-15T13:03:26;99316.82;;;5.95;82.48
34073;BME280;20346;52.702;16.886;2023-01-15T13:05:57;99318.06;;;5.93;82.48
34073;BME280;20346;52.702;16.886;2023-01-15T13:08:35;99316.89;;;5.91;82.46
34073;BME280;20346;52.702;16.886;2023-01-15T13:11:02;99317.73;;;5.92;82.58
34073;BME280;20346;52.702;16.886;2023-01-15T13:13:45;99321.67;;;5.91;82.51
34073;BME280;20346;52.702;16.886;2023-01-15T13:18:59;99327.49;;;5.91;82.49
34073;BME280;20346;52.702;16.886;2023-01-15T13:21:29;99331.27;;;5.91;82.51
34073;BME280;20346;52.702;16.886;2023-01-15T13:26:44;99336.21;;;5.92;82.58
34073;BME280;20346;52.702;16.886;2023-01-15T13:29:19;99333.12;;;5.92;82.57
34073;BME280;20346;52.702;16.886;2023-01-15T13:34:29;99325.13;;;5.90;82.47
34073;BME280;20346;52.702;16.886;2023-01-15T13:36:58;99336.42;;;5.89;82.52
34073;BME280;20346;52.702;16.886;2023-01-15T13:39:28;99336.59;;;5.89;82.58
34073;BME280;20346;52.702;16.886;2023-01-15T13:41:57;99349.08;;;5.88;82.51
34073;BME280;20346;52.702;16.886;2023-01-15T13:44:48;99348.59;;;5.86;82.46
34073;BME280;20346;52.702;16.886;2023-01-15T13:47:24;99342.66;;;5.83;82.44
34073;BME280;20346;52.702;16.886;2023-01-15T13:49:54;99335.66;;;5.82;82.51
34073;BME280;20346;52.702;16.886;2023-01-15T13:54:52;99342.90;;;5.79;82.47
34073;BME280;20346;52.702;16.886;2023-01-15T13:57:23;99343.24;;;5.78;82.53
34073;BME280;20346;52.702;16.886;2023-01-15T13:59:49;99339.86;;;5.77;82.51
34073;BME280;20346;52.702;16.886;2023-01-15T14:02:28;99328.06;;;5.77;82.52
34073;BME280;20346;52.702;16.886;2023-01-15T14:04:54;99326.02;;;5.77;82.55
34073;BME280;20346;52.702;16.886;2023-01-15T14:07:21;99330.48;;;5.75;82.48
34073;BME280;20346;52.702;16.886;2023-01-15T14:09:54;99327.09;;;5.73;82.52
34073;BME280;20346;52.702;16.886;2023-01-15T14:12:27;99321.52;;;5.71;82.43
34073;BME280;20346;52.702;16.886;2023-01-15T14:20:14;99318.83;;;5.69;82.52
34073;BME280;20346;52.702;16.886;2023-01-15T14:25:19;99324.13;;;5.68;82.52
34073;BME280;20346;52.702;16.886;2023-01-15T14:30:34;99332.22;;;5.65;82.49
34073;BME280;20346;52.702;16.886;2023-01-15T14:35:35;99353.84;;;5.60;82.45
34073;BME280;20346;52.702;16.886;2023-01-15T14:38:09;99354.21;;;5.58;82.46
34073;BME280;20346;52.702;16.886;2023-01-15T14:40:37;99352.86;;;5.57;82.48
34073;BME280;20346;52.702;16.886;2023-01-15T14:43:14;99344.17;;;5.55;82.46
34073;BME280;20346;52.702;16.886;2023-01-15T14:45:43;99349.88;;;5.52;82.45
34073;BME280;20346;52.702;16.886;2023-01-15T14:50:45;99349.40;;;5.50;82.54
34073;BME280;20346;52.702;16.886;2023-01-15T15:00:49;99350.38;;;5.52;82.57
34073;BME280;20346;52.702;16.886;2023-01-15T15:03:18;99345.92;;;5.52;82.59
34073;BME280;20346;52.702;16.886;2023-01-15T15:05:45;99340.98;;;5.52;82.56
34073;BME280;20346;52.702;16.886;2023-01-15T15:08:12;99340.80;;;5.52;82.60
34073;BME280;20346;52.702;16.886;2023-01-15T15:10:42;99346.11;;;5.52;82.64
34073;BME280;20346;52.702;16.886;2023-01-15T15:25:46;99348.41;;;5.46;82.58
34073;BME280;20346;52.702;16.886;2023-01-15T15:28:17;99371.85;;;5.45;82.55
34073;BME280;20346;52.702;16.886;2023-01-15T15:30:42;99377.17;;;5.43;82.56
34073;BME280;20346;52.702;16.886;2023-01-15T15:33:11;99368.15;;;5.41;82.52
34073;BME280;20346;52.702;16.886;2023-01-15T15:35:40;99357.92;;;5.40;82.60